Terminal Aerodrome Forecast
Issued by NWS Sterling, VA

Home | Current Version | Previous Version | Text Only | Print | Product List | Glossary On
Versions: 1 2 3 4 5 6 7 8 9 10 11 12 13 14
000
FTUS41 KLWX 131730
TAFMRB
TAF
KMRB 131730Z 1318/1418 28014G23KT P6SM FEW070 SCT250
     FM132000 27011G18KT P6SM BKN070 BKN150
     FM132200 24005KT P6SM VCSH BKN070 OVC130
     FM140000 15004KT P6SM VCSH OVC060
     FM140600 20005KT P6SM BKN060 OVC090
     FM141400 32012G20KT P6SM FEW040 SCT140=

USA.gov is the U.S. government's official web portal to all federal, state and local government web resources and services.